sensor_id;sensor_type;location;lat;lon;timestamp;pressure;altitude;pressure_sealevel;temperature;humidity
18784;BME280;9520;50.954;6.968;2023-02-15T00:00:07;102368.59;;;10.31;47.89
18784;BME280;9520;50.954;6.968;2023-02-15T00:00:32;102385.50;;;10.45;47.63
18784;BME280;9520;50.954;6.968;2023-02-15T00:00:54;102382.47;;;10.18;48.01
18784;BME280;9520;50.954;6.968;2023-02-15T00:01:16;102368.34;;;10.14;48.17
18784;BME280;9520;50.954;6.968;2023-02-15T00:01:39;102385.38;;;10.37;47.84
18784;BME280;9520;50.954;6.968;2023-02-15T00:02:01;102381.03;;;10.43;47.75
18784;BME280;9520;50.954;6.968;2023-02-15T00:02:23;102383.75;;;10.46;47.59
18784;BME280;9520;50.954;6.968;2023-02-15T00:02:46;102378.50;;;10.49;47.56
18784;BME280;9520;50.954;6.968;2023-02-15T00:03:09;102361.75;;;10.45;47.45
18784;BME280;9520;50.954;6.968;2023-02-15T00:03:30;102385.53;;;10.51;47.46
18784;BME280;9520;50.954;6.968;2023-02-15T00:03:53;102380.31;;;10.54;47.30
18784;BME280;9520;50.954;6.968;2023-02-15T00:04:17;102373.28;;;10.53;47.23
18784;BME280;9520;50.954;6.968;2023-02-15T00:04:40;102374.13;;;10.52;47.39
18784;BME280;9520;50.954;6.968;2023-02-15T00:05:11;102359.94;;;10.43;47.47
18784;BME280;9520;50.954;6.968;2023-02-15T00:05:33;102376.81;;;10.54;47.44
18784;BME280;9520;50.954;6.968;2023-02-15T00:05:57;102359.06;;;10.41;47.41
18784;BME280;9520;50.954;6.968;2023-02-15T00:06:22;102370.59;;;10.50;47.40
18784;BME280;9520;50.954;6.968;2023-02-15T00:06:44;102374.13;;;10.52;47.51
18784;BME280;9520;50.954;6.968;2023-02-15T00:07:06;102373.28;;;10.56;47.24
18784;BME280;9520;50.954;6.968;2023-02-15T00:07:29;102364.56;;;10.62;47.30
18784;BME280;9520;50.954;6.968;2023-02-15T00:07:52;102369.97;;;10.69;47.17
18784;BME280;9520;50.954;6.968;2023-02-15T00:08:15;102374.38;;;10.70;47.00
18784;BME280;9520;50.954;6.968;2023-02-15T00:08:36;102364.69;;;10.69;46.92
18784;BME280;9520;50.954;6.968;2023-02-15T00:08:58;102368.22;;;10.73;46.88
18784;BME280;9520;50.954;6.968;2023-02-15T00:09:21;102364.63;;;10.65;46.91
18784;BME280;9520;50.954;6.968;2023-02-15T00:09:45;102370.50;;;10.43;47.34
18784;BME280;9520;50.954;6.968;2023-02-15T00:10:07;102344.88;;;10.32;47.37
18784;BME280;9520;50.954;6.968;2023-02-15T00:10:29;102371.34;;;10.42;47.50
18784;BME280;9520;50.954;6.968;2023-02-15T00:10:52;102375.00;;;10.51;47.43
18784;BME280;9520;50.954;6.968;2023-02-15T00:11:17;102374.16;;;10.54;47.32
18784;BME280;9520;50.954;6.968;2023-02-15T00:12:00;102371.56;;;10.58;47.22
18784;BME280;9520;50.954;6.968;2023-02-15T00:12:22;102362.78;;;10.61;47.08
18784;BME280;9520;50.954;6.968;2023-02-15T00:12:44;102376.03;;;10.64;47.05
18784;BME280;9520;50.954;6.968;2023-02-15T00:13:06;102372.53;;;10.66;46.99
18784;BME280;9520;50.954;6.968;2023-02-15T00:13:28;102356.72;;;10.65;46.90
18784;BME280;9520;50.954;6.968;2023-02-15T00:13:50;102370.72;;;10.61;46.99
18784;BME280;9520;50.954;6.968;2023-02-15T00:14:14;102372.31;;;10.48;47.25
18784;BME280;9520;50.954;6.968;2023-02-15T00:14:37;102367.09;;;10.50;47.21
18784;BME280;9520;50.954;6.968;2023-02-15T00:14:59;102367.06;;;10.48;47.32
18784;BME280;9520;50.954;6.968;2023-02-15T00:15:22;102367.09;;;10.50;47.28
18784;BME280;9520;50.954;6.968;2023-02-15T00:15:44;102369.75;;;10.53;47.31
18784;BME280;9520;50.954;6.968;2023-02-15T00:16:07;102366.25;;;10.54;47.42
18784;BME280;9520;50.954;6.968;2023-02-15T00:16:29;102364.53;;;10.57;47.20
18784;BME280;9520;50.954;6.968;2023-02-15T00:16:52;102369.81;;;10.59;47.11
18784;BME280;9520;50.954;6.968;2023-02-15T00:17:16;102361.03;;;10.58;47.24
18784;BME280;9520;50.954;6.968;2023-02-15T00:17:37;102363.72;;;10.63;47.04
18784;BME280;9520;50.954;6.968;2023-02-15T00:17:59;102367.25;;;10.66;47.00
18784;BME280;9520;50.954;6.968;2023-02-15T00:18:20;102367.31;;;10.71;46.92
18784;BME280;9520;50.954;6.968;2023-02-15T00:18:43;102356.81;;;10.74;46.87
18784;BME280;9520;50.954;6.968;2023-02-15T00:19:05;102362.13;;;10.77;46.77
18784;BME280;9520;50.954;6.968;2023-02-15T00:19:27;102344.41;;;10.65;46.72
18784;BME280;9520;50.954;6.968;2023-02-15T00:19:49;102362.13;;;10.77;46.64
18784;BME280;9520;50.954;6.968;2023-02-15T00:20:12;102365.63;;;10.77;46.61
18784;BME280;9520;50.954;6.968;2023-02-15T00:20:37;102362.06;;;10.72;46.68
18784;BME280;9520;50.954;6.968;2023-02-15T00:21:03;102362.94;;;10.73;46.77
18784;BME280;9520;50.954;6.968;2023-02-15T00:21:25;102354.03;;;10.63;46.95
18784;BME280;9520;50.954;6.968;2023-02-15T00:21:49;102363.59;;;10.54;46.81
18784;BME280;9520;50.954;6.968;2023-02-15T00:22:11;102361.88;;;10.56;46.98
18784;BME280;9520;50.954;6.968;2023-02-15T00:22:33;102357.47;;;10.56;47.15
18784;BME280;9520;50.954;6.968;2023-02-15T00:22:54;102366.28;;;10.57;47.19
18784;BME280;9520;50.954;6.968;2023-02-15T00:23:16;102360.03;;;10.49;47.13
18784;BME280;9520;50.954;6.968;2023-02-15T00:23:39;102318.41;;;10.26;47.20
18784;BME280;9520;50.954;6.968;2023-02-15T00:24:02;102359.91;;;10.41;47.18
18784;BME280;9520;50.954;6.968;2023-02-15T00:24:24;102363.50;;;10.45;47.27
18784;BME280;9520;50.954;6.968;2023-02-15T00:24:47;102364.19;;;10.31;47.42
18784;BME280;9520;50.954;6.968;2023-02-15T00:25:08;102359.84;;;10.33;47.35
18784;BME280;9520;50.954;6.968;2023-02-15T00:25:31;102364.28;;;10.36;47.44
18784;BME280;9520;50.954;6.968;2023-02-15T00:26:03;102359.00;;;10.36;47.56
18784;BME280;9520;50.954;6.968;2023-02-15T00:26:27;102342.09;;;10.20;47.59
18784;BME280;9520;50.954;6.968;2023-02-15T00:26:49;102359.78;;;10.29;47.70
18784;BME280;9520;50.954;6.968;2023-02-15T00:27:11;102357.13;;;10.26;47.74
18784;BME280;9520;50.954;6.968;2023-02-15T00:27:33;102362.34;;;10.24;47.76
18784;BME280;9520;50.954;6.968;2023-02-15T00:27:56;102367.63;;;10.24;47.70
18784;BME280;9520;50.954;6.968;2023-02-15T00:28:18;102360.59;;;10.25;47.78
18784;BME280;9520;50.954;6.968;2023-02-15T00:28:40;102359.72;;;10.24;47.69
18784;BME280;9520;50.954;6.968;2023-02-15T00:29:02;102353.59;;;10.27;47.73
18784;BME280;9520;50.954;6.968;2023-02-15T00:29:25;102351.00;;;10.30;47.76
18784;BME280;9520;50.954;6.968;2023-02-15T00:29:48;102352.78;;;10.32;47.61
18784;BME280;9520;50.954;6.968;2023-02-15T00:30:10;102360.72;;;10.34;47.53
18784;BME280;9520;50.954;6.968;2023-02-15T00:31:02;102357.06;;;10.23;47.64
18784;BME280;9520;50.954;6.968;2023-02-15T00:31:24;102355.34;;;10.25;47.75
18784;BME280;9520;50.954;6.968;2023-02-15T00:31:46;102354.38;;;10.21;47.65
18784;BME280;9520;50.954;6.968;2023-02-15T00:32:09;102358.41;;;9.95;48.24
18784;BME280;9520;50.954;6.968;2023-02-15T00:32:31;102358.53;;;10.04;48.13
18784;BME280;9520;50.954;6.968;2023-02-15T00:32:53;102355.91;;;10.07;48.22
18784;BME280;9520;50.954;6.968;2023-02-15T00:33:15;102353.22;;;10.01;48.25
18784;BME280;9520;50.954;6.968;2023-02-15T00:33:37;102358.56;;;10.06;48.15
18784;BME280;9520;50.954;6.968;2023-02-15T00:34:01;102353.28;;;10.07;48.17
18784;BME280;9520;50.954;6.968;2023-02-15T00:34:26;102356.81;;;10.06;48.27
18784;BME280;9520;50.954;6.968;2023-02-15T00:34:50;102355.03;;;10.07;48.21
18784;BME280;9520;50.954;6.968;2023-02-15T00:35:12;102353.34;;;10.12;48.14
18784;BME280;9520;50.954;6.968;2023-02-15T00:35:35;102349.94;;;10.16;48.12
18784;BME280;9520;50.954;6.968;2023-02-15T00:35:57;102362.25;;;10.18;47.98
18784;BME280;9520;50.954;6.968;2023-02-15T00:36:19;102354.97;;;10.01;48.07
18784;BME280;9520;50.954;6.968;2023-02-15T00:36:43;102359.22;;;9.91;48.62
18784;BME280;9520;50.954;6.968;2023-02-15T00:37:07;102361.91;;;9.97;48.35
18784;BME280;9520;50.954;6.968;2023-02-15T00:37:29;102352.34;;;10.01;48.37
18784;BME280;9520;50.954;6.968;2023-02-15T00:37:51;102347.69;;;9.84;48.46
18784;BME280;9520;50.954;6.968;2023-02-15T00:38:13;102350.47;;;9.93;48.53
18784;BME280;9520;50.954;6.968;2023-02-15T00:38:35;102352.31;;;10.02;48.30
18784;BME280;9520;50.954;6.968;2023-02-15T00:38:58;102358.59;;;10.09;48.33
18784;BME280;9520;50.954;6.968;2023-02-15T00:39:20;102352.50;;;10.14;48.12
18784;BME280;9520;50.954;6.968;2023-02-15T00:39:42;102356.91;;;10.14;48.08
18784;BME280;9520;50.954;6.968;2023-02-15T00:40:06;102360.38;;;10.13;48.13
18784;BME280;9520;50.954;6.968;2023-02-15T00:40:29;102313.59;;;9.95;47.89
18784;BME280;9520;50.954;6.968;2023-02-15T00:40:52;102348.22;;;10.19;47.79
18784;BME280;9520;50.954;6.968;2023-02-15T00:41:15;102351.69;;;10.17;47.92
18784;BME280;9520;50.954;6.968;2023-02-15T00:41:38;102365.03;;;10.27;47.88
18784;BME280;9520;50.954;6.968;2023-02-15T00:42:01;102325.25;;;10.14;47.81
18784;BME280;9520;50.954;6.968;2023-02-15T00:42:23;102362.53;;;10.38;47.70
18784;BME280;9520;50.954;6.968;2023-02-15T00:42:46;102364.31;;;10.42;47.51
18784;BME280;9520;50.954;6.968;2023-02-15T00:43:09;102355.59;;;10.48;47.35
18784;BME280;9520;50.954;6.968;2023-02-15T00:43:31;102359.13;;;10.48;47.27
18784;BME280;9520;50.954;6.968;2023-02-15T00:43:55;102360.06;;;10.50;47.28
18784;BME280;9520;50.954;6.968;2023-02-15T00:44:17;102356.53;;;10.50;47.19
18784;BME280;9520;50.954;6.968;2023-02-15T00:44:40;102352.94;;;10.46;47.10
18784;BME280;9520;50.954;6.968;2023-02-15T00:45:03;102358.25;;;10.48;47.13
18784;BME280;9520;50.954;6.968;2023-02-15T00:45:25;102353.88;;;10.48;47.17
18784;BME280;9520;50.954;6.968;2023-02-15T00:45:47;102347.63;;;10.42;47.27
18784;BME280;9520;50.954;6.968;2023-02-15T00:46:09;102354.69;;;10.44;47.16
18784;BME280;9520;50.954;6.968;2023-02-15T00:46:33;102358.31;;;10.51;47.14
18784;BME280;9520;50.954;6.968;2023-02-15T00:46:56;102367.94;;;10.49;47.18
18784;BME280;9520;50.954;6.968;2023-02-15T00:47:17;102356.47;;;10.45;47.28
18784;BME280;9520;50.954;6.968;2023-02-15T00:47:40;102361.75;;;10.45;47.26
18784;BME280;9520;50.954;6.968;2023-02-15T00:48:03;102360.88;;;10.45;47.26
18784;BME280;9520;50.954;6.968;2023-02-15T00:48:25;102361.69;;;10.42;47.23
18784;BME280;9520;50.954;6.968;2023-02-15T00:48:47;102351.97;;;10.38;47.26
18784;BME280;9520;50.954;6.968;2023-02-15T00:49:09;102359.88;;;10.38;47.61
18784;BME280;9520;50.954;6.968;2023-02-15T00:49:32;102360.84;;;10.43;47.33
18784;BME280;9520;50.954;6.968;2023-02-15T00:49:54;102361.75;;;10.45;47.20
18784;BME280;9520;50.954;6.968;2023-02-15T00:50:15;102333.34;;;10.24;47.24
18784;BME280;9520;50.954;6.968;2023-02-15T00:50:40;102364.19;;;10.30;47.59
18784;BME280;9520;50.954;6.968;2023-02-15T00:51:03;102361.56;;;10.30;47.51
18784;BME280;9520;50.954;6.968;2023-02-15T00:51:25;102362.50;;;10.36;47.42
18784;BME280;9520;50.954;6.968;2023-02-15T00:51:47;102334.25;;;10.28;47.27
18784;BME280;9520;50.954;6.968;2023-02-15T00:52:09;102352.94;;;10.45;47.17
18784;BME280;9520;50.954;6.968;2023-02-15T00:52:31;102357.34;;;10.44;47.29
18784;BME280;9520;50.954;6.968;2023-02-15T00:52:57;102350.97;;;10.28;47.47
18784;BME280;9520;50.954;6.968;2023-02-15T00:53:20;102356.31;;;10.33;47.42
18784;BME280;9520;50.954;6.968;2023-02-15T00:53:41;102341.25;;;10.24;47.49
18784;BME280;9520;50.954;6.968;2023-02-15T00:54:05;102349.25;;;10.30;47.49
18784;BME280;9520;50.954;6.968;2023-02-15T00:54:27;102335.03;;;10.19;47.60
18784;BME280;9520;50.954;6.968;2023-02-15T00:54:50;102341.22;;;10.23;47.57
18784;BME280;9520;50.954;6.968;2023-02-15T00:55:11;102353.69;;;10.34;47.49
18784;BME280;9520;50.954;6.968;2023-02-15T00:55:34;102348.41;;;10.34;47.43
18784;BME280;9520;50.954;6.968;2023-02-15T00:55:56;102338.72;;;10.33;47.46
18784;BME280;9520;50.954;6.968;2023-02-15T00:56:18;102334.88;;;10.12;47.73
18784;BME280;9520;50.954;6.968;2023-02-15T00:56:40;102345.53;;;10.16;47.69
18784;BME280;9520;50.954;6.968;2023-02-15T00:57:03;102338.47;;;10.15;47.76
18784;BME280;9520;50.954;6.968;2023-02-15T00:57:24;102343.81;;;10.18;47.78
18784;BME280;9520;50.954;6.968;2023-02-15T00:57:46;102344.66;;;10.17;47.77
18784;BME280;9520;50.954;6.968;2023-02-15T00:58:08;102312.66;;;9.91;47.99
18784;BME280;9520;50.954;6.968;2023-02-15T00:58:30;102338.41;;;10.12;47.93
18784;BME280;9520;50.954;6.968;2023-02-15T00:58:53;102345.34;;;10.04;48.09
18784;BME280;9520;50.954;6.968;2023-02-15T00:59:15;102338.38;;;10.09;48.07
18784;BME280;9520;50.954;6.968;2023-02-15T00:59:36;102343.63;;;10.06;48.08
18784;BME280;9520;50.954;6.968;2023-02-15T00:59:58;102347.13;;;10.07;48.21
18784;BME280;9520;50.954;6.968;2023-02-15T01:00:21;102341.91;;;10.10;48.08
18784;BME280;9520;50.954;6.968;2023-02-15T01:00:46;102342.75;;;10.09;48.02
18784;BME280;9520;50.954;6.968;2023-02-15T01:01:09;102342.78;;;10.10;48.02
18784;BME280;9520;50.954;6.968;2023-02-15T01:01:31;102336.66;;;10.13;48.00
18784;BME280;9520;50.954;6.968;2023-02-15T01:01:53;102339.41;;;10.16;47.95
18784;BME280;9520;50.954;6.968;2023-02-15T01:02:16;102341.13;;;10.17;47.76
18784;BME280;9520;50.954;6.968;2023-02-15T01:02:37;102339.38;;;10.17;47.85
18784;BME280;9520;50.954;6.968;2023-02-15T01:02:59;102348.13;;;10.15;48.12
18784;BME280;9520;50.954;6.968;2023-02-15T01:03:21;102341.16;;;10.18;47.95
18784;BME280;9520;50.954;6.968;2023-02-15T01:03:44;102345.59;;;10.19;47.69
18784;BME280;9520;50.954;6.968;2023-02-15T01:04:09;102340.31;;;10.19;47.85
18784;BME280;9520;50.954;6.968;2023-02-15T01:04:31;102342.13;;;10.23;47.75
18784;BME280;9520;50.954;6.968;2023-02-15T01:04:53;102343.84;;;10.21;47.71
18784;BME280;9520;50.954;6.968;2023-02-15T01:05:14;102335.88;;;10.17;47.83
18784;BME280;9520;50.954;6.968;2023-02-15T01:05:38;102345.59;;;10.19;47.73
18784;BME280;9520;50.954;6.968;2023-02-15T01:06:00;102346.50;;;10.23;47.71
18784;BME280;9520;50.954;6.968;2023-02-15T01:06:26;102344.69;;;10.19;47.75
18784;BME280;9520;50.954;6.968;2023-02-15T01:06:47;102349.09;;;10.21;47.74
18784;BME280;9520;50.954;6.968;2023-02-15T01:07:10;102344.78;;;10.26;47.74
18784;BME280;9520;50.954;6.968;2023-02-15T01:07:31;102347.41;;;10.26;47.69
18784;BME280;9520;50.954;6.968;2023-02-15T01:07:53;102354.38;;;10.20;47.65
18784;BME280;9520;50.954;6.968;2023-02-15T01:08:16;102344.59;;;10.14;47.74
18784;BME280;9520;50.954;6.968;2023-02-15T01:08:38;102347.16;;;10.08;47.92
18784;BME280;9520;50.954;6.968;2023-02-15T01:09:02;102343.75;;;10.15;47.82
18784;BME280;9520;50.954;6.968;2023-02-15T01:09:24;102330.50;;;10.11;47.68
18784;BME280;9520;50.954;6.968;2023-02-15T01:09:46;102349.09;;;10.21;47.75
18784;BME280;9520;50.954;6.968;2023-02-15T01:10:08;102344.72;;;10.20;47.68
18784;BME280;9520;50.954;6.968;2023-02-15T01:10:33;102349.84;;;10.11;47.69
18784;BME280;9520;50.954;6.968;2023-02-15T01:10:55;102325.09;;;10.02;47.82
18784;BME280;9520;50.954;6.968;2023-02-15T01:11:19;102350.88;;;10.21;47.76
18784;BME280;9520;50.954;6.968;2023-02-15T01:11:44;102351.81;;;10.24;47.68
18784;BME280;9520;50.954;6.968;2023-02-15T01:12:07;102341.19;;;10.21;47.65
18784;BME280;9520;50.954;6.968;2023-02-15T01:12:30;102347.47;;;10.29;47.60
18784;BME280;9520;50.954;6.968;2023-02-15T01:12:52;102350.16;;;10.31;47.48
18784;BME280;9520;50.954;6.968;2023-02-15T01:13:14;102347.41;;;10.26;47.62
18784;BME280;9520;50.954;6.968;2023-02-15T01:13:37;102341.03;;;10.09;47.48
18784;BME280;9520;50.954;6.968;2023-02-15T01:14:00;102340.19;;;10.13;47.74
18784;BME280;9520;50.954;6.968;2023-02-15T01:14:24;102341.81;;;10.04;48.14
18784;BME280;9520;50.954;6.968;2023-02-15T01:14:46;102347.16;;;10.08;47.69
18784;BME280;9520;50.954;6.968;2023-02-15T01:15:09;102346.31;;;10.12;47.95
18784;BME280;9520;50.954;6.968;2023-02-15T01:15:35;102348.19;;;10.18;47.84
18784;BME280;9520;50.954;6.968;2023-02-15T01:15:58;102343.84;;;10.21;47.78
18784;BME280;9520;50.954;6.968;2023-02-15T01:16:20;102342.03;;;10.17;47.73
18784;BME280;9520;50.954;6.968;2023-02-15T01:16:43;102349.13;;;10.23;47.37
18784;BME280;9520;50.954;6.968;2023-02-15T01:17:05;102349.13;;;10.20;47.74
18784;BME280;9520;50.954;6.968;2023-02-15T01:17:29;102339.44;;;10.20;47.79
18784;BME280;9520;50.954;6.968;2023-02-15T01:17:52;102346.47;;;10.20;47.82
18784;BME280;9520;50.954;6.968;2023-02-15T01:18:15;102347.31;;;10.17;47.77
18784;BME280;9520;50.954;6.968;2023-02-15T01:18:38;102349.19;;;10.26;47.66
18784;BME280;9520;50.954;6.968;2023-02-15T01:19:02;102343.94;;;10.29;47.57
18784;BME280;9520;50.954;6.968;2023-02-15T01:19:25;102346.56;;;10.27;47.58
18784;BME280;9520;50.954;6.968;2023-02-15T01:19:47;102343.94;;;10.29;47.34
18784;BME280;9520;50.954;6.968;2023-02-15T01:20:09;102346.66;;;10.33;47.37
18784;BME280;9520;50.954;6.968;2023-02-15T01:20:35;102343.16;;;10.37;47.18
18784;BME280;9520;50.954;6.968;2023-02-15T01:20:58;102338.84;;;10.43;47.30
18784;BME280;9520;50.954;6.968;2023-02-15T01:21:22;102346.66;;;10.33;47.24
18784;BME280;9520;50.954;6.968;2023-02-15T01:21:44;102341.47;;;10.39;47.23
18784;BME280;9520;50.954;6.968;2023-02-15T01:22:06;102349.31;;;10.36;47.35
18784;BME280;9520;50.954;6.968;2023-02-15T01:22:29;102347.44;;;10.28;47.44
18784;BME280;9520;50.954;6.968;2023-02-15T01:22:51;102355.47;;;10.35;47.22
18784;BME280;9520;50.954;6.968;2023-02-15T01:23:13;102352.84;;;10.35;47.33
18784;BME280;9520;50.954;6.968;2023-02-15T01:23:35;102343.97;;;10.32;47.29
18784;BME280;9520;50.954;6.968;2023-02-15T01:23:59;102346.59;;;10.29;47.42
18784;BME280;9520;50.954;6.968;2023-02-15T01:24:21;102348.31;;;10.27;47.48
18784;BME280;9520;50.954;6.968;2023-02-15T01:24:42;102349.16;;;10.24;47.51
18784;BME280;9520;50.954;6.968;2023-02-15T01:25:05;102330.59;;;10.17;47.58
18784;BME280;9520;50.954;6.968;2023-02-15T01:25:28;102343.03;;;10.27;47.71
18784;BME280;9520;50.954;6.968;2023-02-15T01:25:50;102341.28;;;10.27;47.52
18784;BME280;9520;50.954;6.968;2023-02-15T01:26:12;102341.31;;;10.29;47.64
18784;BME280;9520;50.954;6.968;2023-02-15T01:26:34;102343.09;;;10.30;47.49
18784;BME280;9520;50.954;6.968;2023-02-15T01:26:56;102340.44;;;10.31;47.42
18784;BME280;9520;50.954;6.968;2023-02-15T01:27:20;102346.63;;;10.32;47.49
18784;BME280;9520;50.954;6.968;2023-02-15T01:27:43;102343.91;;;10.27;47.50
18784;BME280;9520;50.954;6.968;2023-02-15T01:28:06;102328.91;;;10.22;47.49
18784;BME280;9520;50.954;6.968;2023-02-15T01:28:29;102339.63;;;10.34;47.42
18784;BME280;9520;50.954;6.968;2023-02-15T01:28:50;102341.31;;;10.29;47.37
18784;BME280;9520;50.954;6.968;2023-02-15T01:29:12;102335.13;;;10.25;47.41
18784;BME280;9520;50.954;6.968;2023-02-15T01:29:34;102339.53;;;10.28;47.43
18784;BME280;9520;50.954;6.968;2023-02-15T01:29:57;102341.38;;;10.33;47.24
18784;BME280;9520;50.954;6.968;2023-02-15T01:30:19;102335.28;;;10.36;47.15
18784;BME280;9520;50.954;6.968;2023-02-15T01:30:43;102334.38;;;10.37;47.12
18784;BME280;9520;50.954;6.968;2023-02-15T01:31:06;102336.03;;;10.29;47.31
18784;BME280;9520;50.954;6.968;2023-02-15T01:31:28;102337.84;;;10.33;47.33
18784;BME280;9520;50.954;6.968;2023-02-15T01:31:51;102330.88;;;10.38;47.24
18784;BME280;9520;50.954;6.968;2023-02-15T01:32:13;102333.44;;;10.30;47.23
18784;BME280;9520;50.954;6.968;2023-02-15T01:32:37;102328.09;;;10.27;47.29
18784;BME280;9520;50.954;6.968;2023-02-15T01:32:59;102336.97;;;10.34;47.27
18784;BME280;9520;50.954;6.968;2023-02-15T01:33:25;102326.25;;;10.19;47.41
18784;BME280;9520;50.954;6.968;2023-02-15T01:33:48;102336.00;;;10.26;47.38
18784;BME280;9520;50.954;6.968;2023-02-15T01:34:10;102331.63;;;10.28;47.38
18784;BME280;9520;50.954;6.968;2023-02-15T01:34:33;102332.53;;;10.31;47.32
18784;BME280;9520;50.954;6.968;2023-02-15T01:34:55;102335.22;;;10.34;47.18
18784;BME280;9520;50.954;6.968;2023-02-15T01:35:18;102338.75;;;10.36;47.20
18784;BME280;9520;50.954;6.968;2023-02-15T01:35:40;102333.41;;;10.29;47.27
18784;BME280;9520;50.954;6.968;2023-02-15T01:36:03;102306.91;;;10.18;47.08
18784;BME280;9520;50.954;6.968;2023-02-15T01:36:26;102332.53;;;10.31;47.18
18784;BME280;9520;50.954;6.968;2023-02-15T01:36:47;102322.81;;;10.24;47.31
18784;BME280;9520;50.954;6.968;2023-02-15T01:37:09;102329.03;;;10.29;47.20
18784;BME280;9520;50.954;6.968;2023-02-15T01:37:31;102334.16;;;10.19;47.44
18784;BME280;9520;50.954;6.968;2023-02-15T01:37:56;102320.78;;;10.08;47.48
18784;BME280;9520;50.954;6.968;2023-02-15T01:38:18;102334.19;;;10.20;47.46
18784;BME280;9520;50.954;6.968;2023-02-15T01:38:41;102339.50;;;10.25;47.31
18784;BME280;9520;50.954;6.968;2023-02-15T01:39:03;102337.72;;;10.21;47.47
18784;BME280;9520;50.954;6.968;2023-02-15T01:39:26;102336.84;;;10.23;47.44
18784;BME280;9520;50.954;6.968;2023-02-15T01:39:48;102334.22;;;10.26;47.31
18784;BME280;9520;50.954;6.968;2023-02-15T01:40:14;102337.66;;;10.18;47.51
18784;BME280;9520;50.954;6.968;2023-02-15T01:40:38;102336.84;;;10.23;47.52
18784;BME280;9520;50.954;6.968;2023-02-15T01:41:29;102329.88;;;10.28;47.18
18784;BME280;9520;50.954;6.968;2023-02-15T01:41:54;102329.88;;;10.28;47.32
18784;BME280;9520;50.954;6.968;2023-02-15T01:42:21;102336.91;;;10.28;47.33
18784;BME280;9520;50.954;6.968;2023-02-15T01:42:44;102304.03;;;10.03;47.39
18784;BME280;9520;50.954;6.968;2023-02-15T01:43:09;102343.88;;;10.23;47.41
18784;BME280;9520;50.954;6.968;2023-02-15T01:43:39;102332.44;;;10.22;47.32
18784;BME280;9520;50.954;6.968;2023-02-15T01:44:02;102331.53;;;10.20;47.46
18784;BME280;9520;50.954;6.968;2023-02-15T01:44:48;102335.81;;;10.14;47.62
18784;BME280;9520;50.954;6.968;2023-02-15T01:45:19;102336.63;;;10.10;47.65
18784;BME280;9520;50.954;6.968;2023-02-15T01:45:44;102329.56;;;10.07;47.88
18784;BME280;9520;50.954;6.968;2023-02-15T01:46:09;102331.38;;;10.10;47.80
18784;BME280;9520;50.954;6.968;2023-02-15T01:46:35;102329.44;;;9.98;47.79
18784;BME280;9520;50.954;6.968;2023-02-15T01:46:59;102328.50;;;9.94;48.09
18784;BME280;9520;50.954;6.968;2023-02-15T01:47:23;102336.25;;;9.84;48.24
18784;BME280;9520;50.954;6.968;2023-02-15T01:47:56;102325.56;;;9.73;48.43
18784;BME280;9520;50.954;6.968;2023-02-15T01:48:26;102314.13;;;9.73;48.34
18784;BME280;9520;50.954;6.968;2023-02-15T01:48:56;102330.91;;;9.76;48.49
18784;BME280;9520;50.954;6.968;2023-02-15T01:49:24;102330.09;;;9.83;48.67
18784;BME280;9520;50.954;6.968;2023-02-15T01:49:53;102338.03;;;9.85;48.42
18784;BME280;9520;50.954;6.968;2023-02-15T01:50:22;102324.91;;;9.88;48.35
18784;BME280;9520;50.954;6.968;2023-02-15T01:50:50;102327.53;;;9.88;48.28
18784;BME280;9520;50.954;6.968;2023-02-15T01:51:17;102331.91;;;9.87;48.31
18784;BME280;9520;50.954;6.968;2023-02-15T01:51:42;102322.19;;;9.83;48.28
18784;BME280;9520;50.954;6.968;2023-02-15T01:52:06;102327.41;;;9.79;48.47
18784;BME280;9520;50.954;6.968;2023-02-15T01:52:28;102320.44;;;9.84;48.43
18784;BME280;9520;50.954;6.968;2023-02-15T01:52:55;102318.72;;;9.87;48.40
18784;BME280;9520;50.954;6.968;2023-02-15T01:53:21;102323.22;;;9.91;48.38
18784;BME280;9520;50.954;6.968;2023-02-15T01:53:48;102322.25;;;9.88;48.23
18784;BME280;9520;50.954;6.968;2023-02-15T01:54:20;102314.19;;;9.76;48.18
18784;BME280;9520;50.954;6.968;2023-02-15T01:54:46;102323.09;;;9.84;48.35
18784;BME280;9520;50.954;6.968;2023-02-15T01:55:09;102314.28;;;9.83;48.35
18784;BME280;9520;50.954;6.968;2023-02-15T01:55:34;102323.16;;;9.88;48.23
18784;BME280;9520;50.954;6.968;2023-02-15T01:55:59;102315.16;;;9.81;48.39
18784;BME280;9520;50.954;6.968;2023-02-15T01:56:27;102316.84;;;9.77;48.33
18784;BME280;9520;50.954;6.968;2023-02-15T01:56:50;102319.50;;;9.79;48.40
18784;BME280;9520;50.954;6.968;2023-02-15T01:57:15;102317.66;;;9.72;48.63
18784;BME280;9520;50.954;6.968;2023-02-15T01:57:38;102316.53;;;9.58;48.79
18784;BME280;9520;50.954;6.968;2023-02-15T01:58:01;102321.72;;;9.51;48.98
18784;BME280;9520;50.954;6.968;2023-02-15T01:58:26;102313.75;;;9.47;49.26
18784;BME280;9520;50.954;6.968;2023-02-15T01:58:49;102317.16;;;9.40;49.22
18784;BME280;9520;50.954;6.968;2023-02-15T01:59:16;102321.66;;;9.48;49.21
18784;BME280;9520;50.954;6.968;2023-02-15T01:59:40;102323.47;;;9.51;49.07
18784;BME280;9520;50.954;6.968;2023-02-15T02:00:06;102318.19;;;9.49;49.27
18784;BME280;9520;50.954;6.968;2023-02-15T02:00:36;102319.75;;;9.38;49.38
18784;BME280;9520;50.954;6.968;2023-02-15T02:01:00;102316.22;;;9.36;49.33
18784;BME280;9520;50.954;6.968;2023-02-15T02:01:22;102321.34;;;9.27;49.79
18784;BME280;9520;50.954;6.968;2023-02-15T02:01:45;102301.00;;;9.19;49.92
18784;BME280;9520;50.954;6.968;2023-02-15T02:02:09;102321.50;;;9.36;49.64
18784;BME280;9520;50.954;6.968;2023-02-15T02:02:34;102320.72;;;9.42;49.55
18784;BME280;9520;50.954;6.968;2023-02-15T02:02:57;102318.06;;;9.42;49.40
18784;BME280;9520;50.954;6.968;2023-02-15T02:03:24;102313.59;;;9.36;49.54
18784;BME280;9520;50.954;6.968;2023-02-15T02:03:56;102322.59;;;9.50;49.50
18784;BME280;9520;50.954;6.968;2023-02-15T02:04:24;102316.47;;;9.53;49.39
18784;BME280;9520;50.954;6.968;2023-02-15T02:04:53;102278.41;;;9.31;49.19
18784;BME280;9520;50.954;6.968;2023-02-15T02:05:17;102317.19;;;9.41;49.29